createdAt,value
2023-03-14T00:05:00.189Z,13
2023-03-14T00:10:01.797Z,17
2023-03-14T00:15:03.491Z,12
2023-03-14T00:20:05.170Z,17
2023-03-14T00:25:06.841Z,17
2023-03-14T00:30:08.420Z,10
2023-03-14T00:35:10.443Z,10
2023-03-14T00:40:12.087Z,12
2023-03-14T00:45:13.835Z,18
2023-03-14T00:50:15.728Z,12
2023-03-14T00:55:17.368Z,6
2023-03-14T01:00:19.030Z,10
2023-03-14T01:05:20.652Z,13
2023-03-14T01:10:23.280Z,13
2023-03-14T01:15:24.933Z,12
2023-03-14T01:20:26.600Z,11
2023-03-14T01:25:28.268Z,9
2023-03-14T01:30:29.939Z,10
2023-03-14T01:35:31.638Z,12
2023-03-14T01:40:33.272Z,8
2023-03-14T01:45:35.044Z,12
2023-03-14T01:50:36.899Z,17
2023-03-14T01:55:38.697Z,13
2023-03-14T02:00:40.347Z,11
2023-03-14T02:05:42.087Z,11
2023-03-14T02:10:43.967Z,12
2023-03-14T02:15:45.589Z,11
2023-03-14T02:20:47.279Z,16
2023-03-14T02:25:48.983Z,15
2023-03-14T02:30:50.663Z,13
2023-03-14T02:35:52.316Z,21
2023-03-14T02:40:53.920Z,12
2023-03-14T02:45:55.708Z,13
2023-03-14T02:50:57.361Z,15
2023-03-14T02:55:58.961Z,12
2023-03-14T03:01:00.618Z,13
2023-03-14T03:06:02.508Z,14
2023-03-14T03:11:04.173Z,8
2023-03-14T03:16:05.880Z,12
2023-03-14T03:21:07.484Z,8
2023-03-14T03:26:09.173Z,8
2023-03-14T03:31:10.898Z,12
2023-03-14T03:36:12.686Z,9
2023-03-14T03:41:14.412Z,11
2023-03-14T03:46:16.162Z,13
2023-03-14T03:51:17.786Z,8
2023-03-14T03:56:19.484Z,9
2023-03-14T04:01:21.229Z,6
2023-03-14T04:06:23.144Z,13
2023-03-14T04:11:24.964Z,16
2023-03-14T04:16:26.572Z,13
2023-03-14T04:21:28.218Z,10
2023-03-14T04:26:29.823Z,8
2023-03-14T04:31:31.577Z,12
2023-03-14T04:36:33.305Z,14
2023-03-14T04:41:35.159Z,12
2023-03-14T04:46:36.912Z,14
2023-03-14T04:51:38.542Z,9
2023-03-14T04:56:40.184Z,7
2023-03-14T05:01:41.876Z,7
2023-03-14T05:06:43.506Z,8
2023-03-14T05:11:45.118Z,13
2023-03-14T05:16:46.854Z,10
2023-03-14T05:21:48.468Z,13
2023-03-14T05:26:50.126Z,9
2023-03-14T05:31:51.756Z,9
2023-03-14T05:36:53.370Z,7
2023-03-14T05:41:55.045Z,3
2023-03-14T05:46:56.669Z,1
2023-03-14T05:51:58.374Z,1
2023-03-14T05:57:00.008Z,0
2023-03-14T06:02:01.748Z,0
2023-03-14T06:07:03.491Z,0
2023-03-14T06:12:05.197Z,1
2023-03-14T06:17:06.808Z,0
2023-03-14T06:22:08.426Z,1
2023-03-14T06:27:10.146Z,1
2023-03-14T06:32:11.781Z,1
2023-03-14T06:37:13.473Z,1
2023-03-14T06:42:15.227Z,4
2023-03-14T06:47:17.269Z,2
2023-03-14T06:52:18.953Z,5
2023-03-14T06:57:20.828Z,5
2023-03-14T07:02:32.453Z,5
2023-03-14T07:07:41.791Z,3
2023-03-14T07:12:43.439Z,1
2023-03-14T07:17:45.107Z,0
2023-03-14T07:22:46.782Z,0
2023-03-14T07:27:48.488Z,0
2023-03-14T07:32:50.315Z,0
2023-03-14T07:37:52.121Z,1
2023-03-14T07:42:53.808Z,1
2023-03-14T07:47:55.426Z,1
2023-03-14T07:52:57.011Z,1
2023-03-14T07:57:58.825Z,1
2023-03-14T08:03:00.555Z,1
2023-03-14T08:08:02.329Z,1
2023-03-14T08:13:03.896Z,1
2023-03-14T08:18:05.575Z,2
2023-03-14T08:23:07.257Z,1
2023-03-14T08:28:09.174Z,1
2023-03-14T08:33:10.780Z,1
2023-03-14T08:38:12.835Z,1
2023-03-14T08:43:14.499Z,0
2023-03-14T08:48:16.140Z,0
2023-03-14T08:53:17.771Z,2
2023-03-14T08:58:19.369Z,1
2023-03-14T09:03:21.124Z,1
2023-03-14T09:08:22.801Z,1
2023-03-14T09:13:24.458Z,10
2023-03-14T09:18:26.119Z,4
2023-03-14T09:23:27.738Z,2
2023-03-14T09:28:29.390Z,1
2023-03-14T09:33:30.986Z,1
2023-03-14T09:38:32.595Z,1
2023-03-14T09:43:34.232Z,1
2023-03-14T09:48:35.874Z,0
2023-03-14T09:53:37.498Z,3
2023-03-14T09:58:39.399Z,1
2023-03-14T10:03:41.026Z,2
2023-03-14T10:08:42.679Z,2
2023-03-14T10:13:44.332Z,4
2023-03-14T10:18:46.015Z,2
2023-03-14T10:23:49.656Z,4
2023-03-14T10:28:51.818Z,1
2023-03-14T10:33:53.446Z,2
2023-03-14T10:38:55.270Z,1
2023-03-14T10:43:56.985Z,1
2023-03-14T10:48:58.580Z,2
2023-03-14T10:54:00.184Z,1
2023-03-14T10:59:01.884Z,4
2023-03-14T11:04:03.551Z,5
2023-03-14T11:09:05.192Z,2
2023-03-14T11:14:06.789Z,2
2023-03-14T11:19:08.569Z,3
2023-03-14T11:24:10.203Z,3
2023-03-14T11:29:11.937Z,7
2023-03-14T11:34:13.556Z,4
2023-03-14T11:39:15.163Z,8
2023-03-14T11:44:16.831Z,8
2023-03-14T11:49:18.712Z,5
2023-03-14T11:54:20.349Z,7
2023-03-14T11:59:21.986Z,7
2023-03-14T12:04:23.621Z,4
2023-03-14T12:09:25.229Z,7
2023-03-14T12:14:26.874Z,13
2023-03-14T12:19:28.562Z,15
2023-03-14T12:24:31.763Z,4
2023-03-14T12:29:34.562Z,4
2023-03-14T12:34:36.142Z,10
2023-03-14T12:39:37.754Z,8
2023-03-14T12:44:39.358Z,9
2023-03-14T12:49:40.990Z,7
2023-03-14T12:54:42.638Z,10
2023-03-14T12:59:44.261Z,7
2023-03-14T13:04:46.026Z,6
2023-03-14T13:09:47.856Z,4
2023-03-14T13:14:49.517Z,10
2023-03-14T13:19:51.282Z,5
2023-03-14T13:24:52.924Z,10
2023-03-14T13:29:54.723Z,10
2023-03-14T13:34:56.364Z,15
2023-03-14T13:39:58.281Z,9
2023-03-14T13:45:00.005Z,10
2023-03-14T13:50:01.758Z,8
2023-03-14T13:55:03.510Z,6
2023-03-14T14:00:05.143Z,14
2023-03-14T14:05:06.851Z,9
2023-03-14T14:10:08.533Z,10
2023-03-14T14:15:10.231Z,7
2023-03-14T14:20:11.851Z,7
2023-03-14T14:25:13.570Z,9
2023-03-14T14:30:15.152Z,14
2023-03-14T14:35:16.803Z,3
2023-03-14T14:40:18.494Z,3
2023-03-14T14:45:20.163Z,2
2023-03-14T14:50:21.870Z,24
2023-03-14T14:55:23.503Z,18
2023-03-14T15:00:25.182Z,15
2023-03-14T15:05:26.943Z,14
2023-03-14T15:10:28.571Z,15
2023-03-14T15:15:30.201Z,14
2023-03-14T15:20:31.945Z,13
2023-03-14T15:25:53.413Z,14
2023-03-14T15:30:56.043Z,17
2023-03-14T15:35:58.062Z,16
2023-03-14T15:40:59.807Z,8
2023-03-14T15:46:01.443Z,14
2023-03-14T15:51:03.059Z,15
2023-03-14T15:56:04.697Z,9
2023-03-14T16:01:06.581Z,12
2023-03-14T16:06:08.485Z,13
2023-03-14T16:11:10.162Z,10
2023-03-14T16:16:11.897Z,15
2023-03-14T16:21:13.527Z,10
2023-03-14T16:26:15.148Z,22
2023-03-14T16:31:16.976Z,17
2023-03-14T16:36:18.883Z,13
2023-03-14T16:41:20.518Z,13
2023-03-14T16:46:22.902Z,15
2023-03-14T16:51:24.766Z,10
2023-03-14T16:56:26.392Z,20
2023-03-14T17:01:28.201Z,14
2023-03-14T17:06:29.884Z,13
2023-03-14T17:11:31.533Z,13
2023-03-14T17:16:33.303Z,13
2023-03-14T17:21:35.021Z,24
2023-03-14T17:26:36.658Z,19
2023-03-14T17:31:38.449Z,4
2023-03-14T17:36:40.181Z,1
2023-03-14T17:41:41.907Z,1
2023-03-14T17:46:45.023Z,0
2023-03-14T17:51:46.733Z,0
2023-03-14T17:56:48.380Z,0
2023-03-14T18:01:50.224Z,2
2023-03-14T18:06:51.948Z,1
2023-03-14T18:12:05.205Z,0
2023-03-14T18:17:09.141Z,2
2023-03-14T18:22:10.775Z,0
2023-03-14T18:27:12.433Z,1
2023-03-14T18:32:14.158Z,0
2023-03-14T18:37:15.776Z,1
2023-03-14T18:42:17.396Z,1
2023-03-14T18:47:19.106Z,1
2023-03-14T18:52:20.770Z,0
2023-03-14T18:57:22.374Z,0
2023-03-14T19:02:24.343Z,0
2023-03-14T19:07:25.970Z,0
2023-03-14T19:12:27.637Z,0
2023-03-14T19:17:29.325Z,1
2023-03-14T19:22:30.945Z,1
2023-03-14T19:27:32.873Z,0
2023-03-14T19:32:34.615Z,0
2023-03-14T19:37:36.273Z,1
2023-03-14T19:42:37.949Z,2
2023-03-14T19:47:39.597Z,1
2023-03-14T19:52:41.161Z,0
2023-03-14T19:57:42.811Z,0
2023-03-14T20:02:44.592Z,1
2023-03-14T20:07:46.282Z,0
2023-03-14T20:12:47.947Z,1
2023-03-14T20:17:49.615Z,2
2023-03-14T20:22:51.446Z,2
2023-03-14T20:27:53.104Z,0
2023-03-14T20:32:54.901Z,1
2023-03-14T20:37:56.604Z,1
2023-03-14T20:42:58.393Z,1
2023-03-14T20:47:59.998Z,1
2023-03-14T20:53:01.695Z,0
2023-03-14T20:58:03.369Z,0
2023-03-14T21:03:08.249Z,1
2023-03-14T21:08:09.904Z,0
2023-03-14T21:13:11.610Z,0
2023-03-14T21:18:13.191Z,0
2023-03-14T21:23:16.456Z,1
2023-03-14T21:28:19.429Z,0
2023-03-14T21:33:21.182Z,1
2023-03-14T21:38:22.756Z,1
2023-03-14T21:43:24.279Z,0
2023-03-14T21:48:25.831Z,1
2023-03-14T21:53:27.447Z,0
2023-03-14T21:58:29.053Z,1
2023-03-14T22:03:30.627Z,1
2023-03-14T22:08:32.308Z,1
2023-03-14T22:13:34.082Z,2
2023-03-14T22:18:35.607Z,0
2023-03-14T22:23:37.183Z,2
2023-03-14T22:28:39.121Z,1
2023-03-14T22:33:40.654Z,1
2023-03-14T22:38:42.226Z,1
2023-03-14T22:43:43.804Z,2
2023-03-14T22:48:45.361Z,0
2023-03-14T22:53:47.176Z,2
2023-03-14T22:58:48.773Z,1
2023-03-14T23:03:50.472Z,2
2023-03-14T23:08:52.014Z,1
2023-03-14T23:13:53.529Z,1
2023-03-14T23:18:55.088Z,1
2023-03-14T23:23:56.707Z,1
2023-03-14T23:28:58.471Z,1
2023-03-14T23:34:00.285Z,1
2023-03-14T23:39:01.915Z,2
2023-03-14T23:44:03.499Z,1
2023-03-14T23:49:05.020Z,2
2023-03-14T23:54:06.707Z,1
2023-03-14T23:59:08.506Z,2
